createdAt,value
2019-02-08T00:01:37.228Z,5.90
2019-02-08T00:04:06.529Z,5.80
2019-02-08T00:06:35.680Z,5.80
2019-02-08T00:09:08.262Z,5.70
2019-02-08T00:11:37.504Z,5.70
2019-02-08T00:14:07.316Z,5.90
2019-02-08T00:16:36.833Z,5.90
2019-02-08T00:19:06.239Z,5.90
2019-02-08T00:21:36.024Z,6.00
2019-02-08T00:24:08.720Z,5.90
2019-02-08T00:26:37.605Z,6.00
2019-02-08T00:29:08.042Z,6.00
2019-02-08T00:31:37.176Z,6.10
2019-02-08T00:34:07.443Z,6.00
2019-02-08T00:36:36.637Z,6.00
2019-02-08T00:39:12.389Z,6.00
2019-02-08T00:41:42.899Z,6.00
2019-02-08T00:44:14.692Z,6.00
2019-02-08T00:46:44.775Z,6.00
2019-02-08T00:49:15.775Z,6.00
2019-02-08T00:51:44.651Z,6.00
2019-02-08T00:54:14.796Z,6.10
2019-02-08T00:56:44.019Z,6.10
2019-02-08T00:59:13.015Z,6.20
2019-02-08T01:01:43.344Z,6.20
2019-02-08T01:04:12.576Z,6.20
2019-02-08T01:06:41.477Z,6.20
2019-02-08T01:09:11.155Z,6.20
2019-02-08T01:11:40.408Z,6.20
2019-02-08T01:14:10.560Z,6.30
2019-02-08T01:16:40.286Z,6.20
2019-02-08T01:19:10.213Z,6.20
2019-02-08T01:21:39.216Z,6.10
2019-02-08T01:24:08.692Z,6.10
2019-02-08T01:26:37.458Z,6.10
2019-02-08T01:29:09.000Z,6.20
2019-02-08T01:31:40.204Z,6.10
2019-02-08T01:34:09.688Z,6.10
2019-02-08T01:36:38.603Z,6.20
2019-02-08T01:39:08.607Z,6.20
2019-02-08T01:41:38.385Z,6.20
2019-02-08T01:44:08.635Z,6.10
2019-02-08T01:46:37.888Z,6.20
2019-02-08T01:49:07.156Z,6.20
2019-02-08T01:51:36.426Z,6.20
2019-02-08T01:54:05.432Z,6.10
2019-02-08T01:56:35.619Z,6.00
2019-02-08T01:59:05.656Z,6.00
2019-02-08T02:01:34.968Z,6.10
2019-02-08T02:04:04.569Z,6.10
2019-02-08T02:06:33.576Z,6.10
2019-02-08T02:09:06.943Z,6.10
2019-02-08T02:11:36.932Z,6.00
2019-02-08T02:14:06.496Z,6.00
2019-02-08T02:16:35.535Z,6.10
2019-02-08T02:19:05.132Z,6.20
2019-02-08T02:21:53.456Z,6.20
2019-02-08T02:24:24.674Z,6.20
2019-02-08T02:26:54.392Z,6.10
2019-02-08T02:29:23.727Z,6.10
2019-02-08T02:31:53.172Z,6.20
2019-02-08T02:34:22.620Z,6.20
2019-02-08T02:36:53.194Z,6.10
2019-02-08T02:39:24.232Z,6.10
2019-02-08T02:41:53.370Z,6.20
2019-02-08T02:44:22.996Z,6.20
2019-02-08T02:46:51.936Z,6.20
2019-02-08T02:49:21.319Z,6.30
2019-02-08T02:51:51.453Z,6.30
2019-02-08T02:54:22.253Z,6.20
2019-02-08T02:56:53.169Z,6.30
2019-02-08T02:59:22.249Z,6.30
2019-02-08T03:01:52.135Z,6.30
2019-02-08T03:04:23.315Z,6.40
2019-02-08T03:06:54.215Z,6.40
2019-02-08T03:09:24.104Z,6.30
2019-02-08T03:11:53.112Z,6.30
2019-02-08T03:14:22.414Z,6.30
2019-02-08T03:16:54.524Z,6.30
2019-02-08T03:19:23.492Z,6.30
2019-02-08T03:21:53.340Z,6.20
2019-02-08T03:24:22.264Z,6.30
2019-02-08T03:26:51.046Z,6.30
2019-02-08T03:29:20.756Z,6.40
2019-02-08T03:31:50.609Z,6.30
2019-02-08T03:34:22.893Z,6.20
2019-02-08T03:36:52.107Z,6.20
2019-02-08T03:39:23.395Z,6.20
2019-02-08T03:41:52.527Z,6.30
2019-02-08T03:44:21.805Z,6.30
2019-02-08T03:46:51.465Z,6.30
2019-02-08T03:49:22.605Z,6.40
2019-02-08T03:51:52.788Z,6.50
2019-02-08T03:54:22.880Z,6.50
2019-02-08T03:56:52.255Z,6.50
2019-02-08T03:59:23.093Z,6.40
2019-02-08T04:01:51.959Z,6.50
2019-02-08T04:04:33.140Z,6.50
2019-02-08T04:07:02.256Z,6.60
2019-02-08T04:09:31.291Z,6.20
2019-02-08T04:12:01.917Z,6.30
2019-02-08T04:14:32.225Z,6.30
2019-02-08T04:17:02.656Z,6.30
2019-02-08T04:19:31.653Z,6.20
2019-02-08T04:22:03.403Z,6.30
2019-02-08T04:24:34.904Z,6.20
2019-02-08T04:27:04.263Z,6.20
2019-02-08T04:29:35.229Z,6.20
2019-02-08T04:32:04.099Z,6.30
2019-02-08T04:34:34.329Z,6.30
2019-02-08T04:37:03.723Z,6.30
2019-02-08T04:39:34.134Z,6.20
2019-02-08T04:42:03.198Z,6.30
2019-02-08T04:44:33.080Z,6.30
2019-02-08T04:47:02.958Z,6.30
2019-02-08T04:49:32.305Z,6.30
2019-02-08T04:52:03.288Z,6.30
2019-02-08T04:54:38.328Z,6.30
2019-02-08T04:57:04.639Z,6.40
2019-02-08T04:59:33.729Z,6.30
2019-02-08T05:02:05.012Z,6.40
2019-02-08T05:04:34.756Z,6.40
2019-02-08T05:07:03.896Z,6.30
2019-02-08T05:09:33.345Z,6.40
2019-02-08T05:12:02.289Z,6.60
2019-02-08T05:14:32.124Z,6.50
2019-02-08T05:17:03.124Z,6.40
2019-02-08T05:19:33.819Z,6.30
2019-02-08T05:22:07.328Z,6.30
2019-02-08T05:24:45.595Z,6.20
2019-02-08T05:27:09.776Z,6.10
2019-02-08T05:29:39.296Z,6.20
2019-02-08T05:32:08.681Z,6.20
2019-02-08T05:34:38.369Z,6.30
2019-02-08T05:37:07.647Z,6.20
2019-02-08T05:39:37.462Z,6.00
2019-02-08T05:42:07.205Z,5.80
2019-02-08T05:44:37.219Z,6.30
2019-02-08T05:47:06.114Z,6.20
2019-02-08T05:49:35.176Z,6.20
2019-02-08T05:52:05.984Z,6.30
2019-02-08T05:54:36.001Z,6.10
2019-02-08T05:57:05.093Z,6.10
2019-02-08T05:59:33.969Z,6.10
2019-02-08T06:02:03.960Z,5.90
2019-02-08T06:04:35.204Z,6.00
2019-02-08T06:07:04.496Z,5.90
2019-02-08T06:09:33.427Z,6.00
2019-02-08T06:12:05.077Z,6.10
2019-02-08T06:14:34.225Z,6.10
2019-02-08T06:17:03.769Z,6.10
2019-02-08T06:19:34.256Z,6.10
2019-02-08T06:22:04.014Z,6.00
2019-02-08T06:24:33.416Z,6.10
2019-02-08T06:27:03.031Z,6.20
2019-02-08T06:29:32.132Z,6.10
2019-02-08T06:32:01.573Z,6.20
2019-02-08T06:34:30.737Z,6.20
2019-02-08T06:37:00.089Z,6.00
2019-02-08T06:39:29.253Z,6.10
2019-02-08T06:41:59.824Z,6.10
2019-02-08T06:44:28.839Z,6.00
2019-02-08T06:46:58.116Z,6.10
2019-02-08T06:49:28.136Z,6.00
2019-02-08T06:51:57.591Z,6.00
2019-02-08T06:54:27.012Z,5.90
2019-02-08T06:57:18.203Z,6.00
2019-02-08T07:00:05.602Z,6.00
2019-02-08T07:02:51.671Z,5.90
2019-02-08T07:05:43.044Z,6.00
2019-02-08T07:08:43.715Z,5.90
2019-02-08T07:11:22.679Z,5.80
2019-02-08T07:14:08.147Z,5.80
2019-02-08T07:16:45.719Z,5.80
2019-02-08T07:19:34.944Z,6.10
2019-02-08T07:22:13.928Z,6.10
2019-02-08T07:24:49.800Z,5.90
2019-02-08T07:27:43.064Z,6.00
2019-02-08T07:30:47.764Z,6.00
2019-02-08T07:33:39.704Z,6.20
2019-02-08T07:36:24.409Z,6.00
2019-02-08T07:39:11.684Z,6.00
2019-02-08T07:41:53.888Z,5.90
2019-02-08T07:44:30.183Z,5.90
2019-02-08T07:47:29.004Z,6.00
2019-02-08T07:50:35.152Z,6.10
2019-02-08T07:53:22.073Z,6.10
2019-02-08T07:56:00.632Z,6.00
2019-02-08T07:58:51.919Z,6.10
2019-02-08T08:01:43.663Z,6.10
2019-02-08T08:04:27.933Z,6.10
2019-02-08T08:07:36.188Z,6.10
2019-02-08T08:10:30.883Z,6.10
2019-02-08T08:13:23.422Z,6.20
2019-02-08T08:16:11.836Z,6.30
2019-02-08T08:21:44.467Z,6.20
2019-02-08T08:24:45.112Z,6.30
2019-02-08T08:27:27.893Z,6.30
2019-02-08T08:30:24.283Z,6.30
2019-02-08T08:33:09.260Z,6.20
2019-02-08T08:36:20.509Z,6.00
2019-02-08T08:39:32.155Z,6.10
2019-02-08T08:42:34.203Z,6.20
2019-02-08T08:45:39.523Z,6.20
2019-02-08T08:48:50.868Z,6.00
2019-02-08T08:51:59.792Z,6.20
2019-02-08T08:55:32.904Z,6.20
2019-02-08T08:58:38.352Z,6.30
2019-02-08T09:02:05.234Z,6.30
2019-02-08T09:04:58.771Z,6.20
2019-02-08T09:07:59.636Z,6.40
2019-02-08T09:11:08.701Z,6.50
2019-02-08T09:14:21.764Z,6.70
2019-02-08T09:17:46.860Z,6.40
2019-02-08T09:20:43.647Z,6.40
2019-02-08T09:23:49.741Z,6.50
2019-02-08T09:27:05.724Z,6.50
2019-02-08T09:30:02.156Z,6.80
2019-02-08T09:33:00.390Z,6.70
2019-02-08T09:36:11.094Z,6.70
2019-02-08T09:39:18.860Z,6.70
2019-02-08T09:42:28.045Z,6.60
2019-02-08T09:45:34.121Z,6.70
2019-02-08T09:48:49.644Z,6.60
2019-02-08T09:51:47.408Z,6.60
2019-02-08T09:54:50.804Z,6.50
2019-02-08T09:58:21.073Z,6.60
2019-02-08T10:01:49.605Z,6.50
2019-02-08T10:04:36.537Z,6.40
2019-02-08T10:07:35.324Z,6.60
2019-02-08T10:10:41.800Z,6.80
2019-02-08T10:13:46.791Z,6.60
2019-02-08T10:17:00.898Z,6.70
2019-02-08T10:20:20.880Z,6.50
2019-02-08T10:23:40.702Z,6.50
2019-02-08T10:26:58.056Z,6.60
2019-02-08T10:30:04.067Z,6.40
2019-02-08T10:33:23.635Z,6.30
2019-02-08T10:36:35.477Z,6.30
2019-02-08T10:39:31.728Z,6.20
2019-02-08T10:42:39.679Z,6.40
2019-02-08T10:45:52.992Z,6.50
2019-02-08T10:48:52.876Z,6.60
2019-02-08T10:52:12.568Z,6.50
2019-02-08T10:55:14.249Z,6.50
2019-02-08T10:58:30.480Z,6.60
2019-02-08T11:01:41.718Z,6.80
2019-02-08T11:04:40.771Z,6.90
2019-02-08T11:07:49.647Z,6.80
2019-02-08T11:10:59.837Z,6.80
2019-02-08T11:14:07.520Z,6.50
2019-02-08T11:17:12.672Z,6.50
2019-02-08T11:19:40.539Z,6.60
2019-02-08T11:22:10.760Z,6.70
2019-02-08T11:24:40.527Z,6.70
2019-02-08T11:27:09.904Z,6.70
2019-02-08T11:29:38.689Z,6.80
2019-02-08T11:32:08.156Z,6.90
2019-02-08T11:34:37.168Z,7.10
2019-02-08T11:37:07.476Z,7.00
2019-02-08T11:39:37.648Z,7.10
2019-02-08T11:42:07.252Z,7.30
2019-02-08T11:44:41.264Z,7.20
2019-02-08T11:47:10.273Z,7.20
2019-02-08T11:49:40.332Z,6.90
2019-02-08T11:52:09.843Z,7.10
2019-02-08T11:54:38.760Z,7.00
2019-02-08T11:57:08.424Z,7.20
2019-02-08T11:59:37.768Z,7.30
2019-02-08T12:02:07.655Z,7.30
2019-02-08T12:04:37.982Z,7.20
2019-02-08T12:07:07.301Z,7.30
2019-02-08T12:09:36.498Z,7.30
2019-02-08T12:12:05.401Z,7.40
2019-02-08T12:14:34.510Z,7.30
2019-02-08T12:17:05.552Z,7.50
2019-02-08T12:19:34.539Z,7.30
2019-02-08T12:22:04.141Z,7.40
2019-02-08T12:24:33.072Z,7.50
2019-02-08T12:27:01.928Z,7.80
2019-02-08T12:29:31.365Z,7.50
2019-02-08T12:32:01.461Z,7.60
2019-02-08T12:34:30.744Z,7.60
2019-02-08T12:37:02.116Z,7.40
2019-02-08T12:39:31.599Z,7.50
2019-02-08T12:42:00.481Z,7.50
2019-02-08T12:44:29.819Z,7.40
2019-02-08T12:47:00.593Z,7.30
2019-02-08T12:49:30.358Z,7.40
2019-02-08T12:51:59.301Z,7.60
2019-02-08T12:54:30.132Z,7.60
2019-02-08T12:57:01.464Z,7.60
2019-02-08T12:59:33.456Z,7.30
2019-02-08T13:02:03.807Z,7.30
2019-02-08T13:04:37.187Z,7.10
2019-02-08T13:07:07.068Z,7.00
2019-02-08T13:09:36.080Z,7.10
2019-02-08T13:12:06.536Z,7.10
2019-02-08T13:14:36.304Z,7.10
2019-02-08T13:17:05.638Z,7.20
2019-02-08T13:19:34.456Z,7.10
2019-02-08T13:22:03.512Z,7.10
2019-02-08T13:24:32.326Z,7.00
2019-02-08T13:27:01.188Z,7.00
2019-02-08T13:29:30.328Z,7.20
2019-02-08T13:31:59.469Z,7.30
2019-02-08T13:34:28.475Z,7.20
2019-02-08T13:36:57.389Z,7.20
2019-02-08T13:39:26.554Z,7.10
2019-02-08T13:41:55.446Z,7.20
2019-02-08T13:44:24.382Z,7.10
2019-02-08T13:46:53.212Z,7.10
2019-02-08T13:49:22.617Z,7.30
2019-02-08T13:51:51.441Z,7.30
2019-02-08T13:54:20.316Z,7.40
2019-02-08T13:56:49.048Z,7.50
2019-02-08T13:59:19.800Z,7.50
2019-02-08T14:01:49.651Z,7.30
2019-02-08T14:04:19.463Z,7.30
2019-02-08T14:06:48.410Z,7.30
2019-02-08T14:09:19.796Z,7.30
2019-02-08T14:11:49.645Z,7.50
2019-02-08T14:14:18.754Z,7.50
2019-02-08T14:16:48.309Z,7.70
2019-02-08T14:19:17.293Z,7.60
2019-02-08T14:21:46.896Z,7.50
2019-02-08T14:24:16.358Z,7.60
2019-02-08T14:26:45.432Z,7.50
2019-02-08T14:29:14.748Z,7.40
2019-02-08T14:31:44.868Z,7.70
2019-02-08T14:34:14.440Z,7.70
2019-02-08T14:36:44.285Z,7.80
2019-02-08T14:39:13.220Z,7.70
2019-02-08T14:41:43.778Z,7.60
2019-02-08T14:44:14.651Z,7.50
2019-02-08T14:46:43.832Z,7.60
2019-02-08T14:49:13.089Z,7.50
2019-02-08T14:51:43.948Z,7.60
2019-02-08T14:54:13.971Z,7.60
2019-02-08T14:56:43.041Z,7.60
2019-02-08T14:59:14.422Z,7.60
2019-02-08T15:01:44.116Z,7.70
2019-02-08T15:04:15.061Z,7.60
2019-02-08T15:06:44.218Z,7.70
2019-02-08T15:09:12.999Z,7.80
2019-02-08T15:11:42.283Z,7.70
2019-02-08T15:14:12.422Z,7.70
2019-02-08T15:16:43.354Z,7.80
2019-02-08T15:19:13.815Z,7.80
2019-02-08T15:21:42.615Z,7.70
2019-02-08T15:24:12.474Z,7.80
2019-02-08T15:26:42.765Z,7.70
2019-02-08T15:29:12.976Z,7.70
2019-02-08T15:31:42.133Z,7.70
2019-02-08T15:34:12.248Z,7.60
2019-02-08T15:36:49.205Z,7.50
2019-02-08T15:39:14.030Z,7.50
2019-02-08T15:42:02.217Z,7.60
2019-02-08T15:44:31.307Z,7.40
2019-02-08T15:47:00.197Z,7.30
2019-02-08T15:49:29.098Z,7.20
2019-02-08T15:51:58.999Z,7.30
2019-02-08T15:54:29.276Z,7.20
2019-02-08T15:56:59.840Z,7.20
2019-02-08T15:59:30.090Z,7.20
2019-02-08T16:01:59.984Z,7.20
2019-02-08T16:04:29.856Z,7.20
2019-02-08T16:06:59.183Z,7.20
2019-02-08T16:09:28.125Z,7.20
2019-02-08T16:11:56.962Z,7.20
2019-02-08T16:14:25.816Z,7.20
2019-02-08T16:16:56.131Z,7.20
2019-02-08T16:19:25.677Z,7.20
2019-02-08T16:21:54.836Z,7.10
2019-02-08T16:24:23.987Z,7.10
2019-02-08T16:26:53.034Z,6.80
2019-02-08T16:29:23.156Z,7.10
2019-02-08T16:31:52.058Z,7.10
2019-02-08T16:34:21.650Z,7.10
2019-02-08T16:36:52.036Z,7.10
2019-02-08T16:39:21.208Z,7.00
2019-02-08T16:41:49.949Z,6.90
2019-02-08T16:44:19.518Z,7.00
2019-02-08T16:46:49.879Z,6.90
2019-02-08T16:49:20.340Z,6.90
2019-02-08T16:51:49.485Z,6.90
2019-02-08T16:54:18.951Z,6.90
2019-02-08T16:56:49.379Z,6.80
2019-02-08T16:59:18.244Z,6.80
2019-02-08T17:01:47.743Z,6.80
2019-02-08T17:04:16.920Z,6.90
2019-02-08T17:06:48.051Z,6.90
2019-02-08T17:09:17.917Z,6.80
2019-02-08T17:11:48.951Z,6.80
2019-02-08T17:14:18.704Z,6.90
2019-02-08T17:16:48.328Z,6.90
2019-02-08T17:19:18.851Z,7.00
2019-02-08T17:21:48.564Z,7.00
2019-02-08T17:24:17.528Z,7.00
2019-02-08T17:26:46.576Z,7.00
2019-02-08T17:29:16.812Z,7.00
2019-02-08T17:31:45.856Z,7.10
2019-02-08T17:34:15.337Z,7.10
2019-02-08T17:36:45.076Z,7.10
2019-02-08T17:39:14.851Z,7.10
2019-02-08T17:41:44.725Z,7.10
2019-02-08T17:44:13.749Z,7.10
2019-02-08T17:46:42.757Z,7.10
2019-02-08T17:49:12.520Z,7.20
2019-02-08T17:51:42.095Z,7.20
2019-02-08T17:54:11.977Z,7.20
2019-02-08T17:56:40.752Z,7.20
2019-02-08T17:59:10.524Z,7.20
2019-02-08T18:01:39.532Z,7.30
2019-02-08T18:04:09.328Z,7.30
2019-02-08T18:06:38.411Z,7.40
2019-02-08T18:09:09.979Z,7.30
2019-02-08T18:11:38.872Z,7.30
2019-02-08T18:14:09.618Z,7.30
2019-02-08T18:16:38.935Z,7.30
2019-02-08T18:19:07.939Z,7.40
2019-02-08T18:21:38.012Z,7.40
2019-02-08T18:24:06.736Z,7.40
2019-02-08T18:26:35.733Z,7.50
2019-02-08T18:29:05.678Z,7.50
2019-02-08T18:31:34.541Z,7.50
2019-02-08T18:34:03.592Z,7.50
2019-02-08T18:36:33.919Z,7.50
2019-02-08T18:39:04.133Z,7.60
2019-02-08T18:41:33.341Z,7.60
2019-02-08T18:44:02.208Z,7.60
2019-02-08T18:46:31.212Z,7.60
2019-02-08T18:49:00.066Z,7.60
2019-02-08T18:51:29.691Z,7.60
2019-02-08T18:54:00.431Z,7.60
2019-02-08T18:56:30.091Z,7.70
2019-02-08T18:58:59.453Z,7.60
2019-02-08T19:01:29.725Z,7.60
2019-02-08T19:04:00.692Z,7.60
2019-02-08T19:06:29.980Z,7.60
2019-02-08T19:08:58.772Z,7.70
2019-02-08T19:11:28.785Z,7.70
2019-02-08T19:13:58.388Z,7.70
2019-02-08T19:16:27.744Z,7.70
2019-02-08T19:18:57.793Z,7.70
2019-02-08T19:21:27.728Z,7.70
2019-02-08T19:23:56.867Z,7.70
2019-02-08T19:26:26.796Z,7.70
2019-02-08T19:28:57.712Z,7.70
2019-02-08T19:31:27.798Z,7.70
2019-02-08T19:33:59.825Z,7.70
2019-02-08T19:36:28.855Z,7.80
2019-02-08T19:38:58.436Z,7.80
2019-02-08T19:41:27.501Z,7.80
2019-02-08T19:43:56.842Z,7.90
2019-02-08T19:46:26.160Z,7.90
2019-02-08T19:48:55.276Z,7.80
2019-02-08T19:51:25.541Z,7.90
2019-02-08T19:53:54.368Z,7.90
2019-02-08T19:56:23.272Z,7.90
2019-02-08T19:58:53.306Z,7.90
2019-02-08T20:01:24.440Z,7.90
2019-02-08T20:03:53.312Z,7.90
2019-02-08T20:06:22.806Z,7.90
2019-02-08T20:08:51.908Z,7.90
2019-02-08T20:11:22.344Z,8.00
2019-02-08T20:13:52.745Z,7.90
2019-02-08T20:16:22.376Z,7.90
2019-02-08T20:18:51.201Z,7.90
2019-02-08T20:21:22.912Z,7.80
2019-02-08T20:23:52.612Z,7.90
2019-02-08T20:26:23.622Z,7.80
2019-02-08T20:28:52.852Z,7.90
2019-02-08T20:31:22.147Z,7.90
2019-02-08T20:33:51.385Z,7.80
2019-02-08T20:36:20.417Z,7.90
2019-02-08T20:38:49.233Z,7.90
2019-02-08T20:41:18.386Z,7.90
2019-02-08T20:43:47.405Z,7.80
2019-02-08T20:46:17.299Z,7.90
2019-02-08T20:48:46.314Z,8.00
2019-02-08T20:51:15.264Z,8.00
2019-02-08T20:53:44.391Z,8.00
2019-02-08T20:56:13.815Z,7.90
2019-02-08T20:58:50.039Z,7.90
2019-02-08T21:01:14.384Z,8.00
2019-02-08T21:03:44.300Z,8.00
2019-02-08T21:06:13.561Z,8.00
2019-02-08T21:08:43.293Z,7.90
2019-02-08T21:11:12.484Z,8.00
2019-02-08T21:13:41.284Z,8.00
2019-02-08T21:16:10.240Z,8.00
2019-02-08T21:18:39.876Z,8.10
2019-02-08T21:21:09.212Z,8.10
2019-02-08T21:23:39.764Z,8.00
2019-02-08T21:26:09.641Z,8.00
2019-02-08T21:28:38.448Z,8.00
2019-02-08T21:31:08.502Z,8.10
2019-02-08T21:33:38.544Z,8.20
2019-02-08T21:36:09.592Z,8.10
2019-02-08T21:38:38.395Z,8.10
2019-02-08T21:41:08.164Z,8.10
2019-02-08T21:43:37.533Z,8.10
2019-02-08T21:46:06.447Z,8.20
2019-02-08T21:48:35.514Z,8.10
2019-02-08T21:51:05.641Z,8.20
2019-02-08T21:53:35.520Z,8.20
2019-02-08T21:56:04.796Z,8.40
2019-02-08T21:58:34.212Z,8.20
2019-02-08T22:01:05.535Z,8.30
2019-02-08T22:03:34.700Z,8.30
2019-02-08T22:06:07.548Z,8.30
2019-02-08T22:08:36.774Z,8.30
2019-02-08T22:11:06.828Z,8.20
2019-02-08T22:13:35.940Z,8.20
2019-02-08T22:16:05.842Z,8.30
2019-02-08T22:18:36.060Z,8.30
2019-02-08T22:21:05.904Z,8.30
2019-02-08T22:23:35.076Z,8.30
2019-02-08T22:26:05.092Z,8.30
2019-02-08T22:28:34.316Z,8.30
2019-02-08T22:31:03.909Z,8.30
2019-02-08T22:33:33.524Z,8.30
2019-02-08T22:36:02.900Z,8.40
2019-02-08T22:38:31.914Z,8.40
2019-02-08T22:41:00.849Z,8.50
2019-02-08T22:43:30.128Z,8.30
2019-02-08T22:45:59.447Z,8.30
2019-02-08T22:48:31.707Z,8.40
2019-02-08T22:51:00.784Z,8.30
2019-02-08T22:53:29.916Z,8.40
2019-02-08T22:55:59.227Z,8.40
2019-02-08T22:58:28.347Z,8.30
2019-02-08T23:01:38.849Z,8.30
2019-02-08T23:04:15.773Z,8.30
2019-02-08T23:06:45.278Z,8.40
2019-02-08T23:09:22.233Z,8.30
2019-02-08T23:11:51.649Z,8.50
2019-02-08T23:14:23.540Z,8.50
2019-02-08T23:16:54.472Z,8.40
2019-02-08T23:19:23.340Z,8.40
2019-02-08T23:21:52.515Z,8.40
2019-02-08T23:24:21.832Z,8.30
2019-02-08T23:26:51.427Z,8.50
2019-02-08T23:29:29.666Z,8.40
2019-02-08T23:31:52.637Z,8.30
2019-02-08T23:34:22.596Z,8.30
2019-02-08T23:36:51.353Z,8.20
2019-02-08T23:39:20.298Z,8.20
2019-02-08T23:41:50.169Z,8.20
2019-02-08T23:44:19.964Z,8.10
2019-02-08T23:46:49.695Z,8.10
2019-02-08T23:49:20.076Z,8.00
2019-02-08T23:51:49.115Z,7.90
2019-02-08T23:54:18.196Z,7.90
2019-02-08T23:56:47.300Z,7.90
2019-02-08T23:59:16.938Z,7.90
